createdAt,value
2022-11-21T02:44:04.605Z,32.70
2022-11-21T02:46:53.303Z,32.27
2022-11-21T02:49:52.092Z,34.83
2022-11-21T02:52:39.578Z,33.30
2022-11-21T03:17:53.793Z,32.27
2022-11-21T03:20:41.832Z,32.67
2022-11-21T03:23:29.287Z,31.20
2022-11-21T03:26:16.952Z,33.00
2022-11-21T03:29:04.943Z,31.67
2022-11-21T03:31:52.472Z,31.57
2022-11-21T03:34:41.765Z,30.93
2022-11-21T03:37:29.503Z,30.93
2022-11-21T03:40:17.471Z,31.50
2022-11-21T03:43:06.790Z,31.13
2022-11-21T03:45:54.238Z,31.10
2022-11-21T03:48:42.012Z,28.53
2022-11-21T03:51:31.064Z,27.53
2022-11-21T03:59:53.755Z,30.30
2022-11-21T04:02:41.526Z,27.30
2022-11-21T04:05:29.248Z,28.37
2022-11-21T04:08:18.482Z,27.83
2022-11-21T04:11:06.700Z,26.47
2022-11-21T04:13:54.497Z,25.37
2022-11-21T04:16:42.046Z,25.33
2022-11-21T04:19:29.656Z,23.57
2022-11-21T04:50:19.025Z,25.87
2022-11-21T04:53:06.884Z,24.13
2022-11-21T04:55:54.598Z,25.35
2022-11-21T05:07:07.673Z,26.93
2022-11-21T05:09:55.258Z,26.70
2022-11-21T05:13:00.574Z,24.67
2022-11-21T05:15:51.677Z,24.03
2022-11-21T05:18:39.572Z,24.63
2022-11-21T05:21:27.426Z,24.07
2022-11-21T05:24:15.044Z,25.67
2022-11-21T05:27:02.873Z,25.83
2022-11-21T05:29:50.608Z,26.20
2022-11-21T05:32:39.742Z,25.27
2022-11-21T05:35:27.544Z,25.97
2022-11-21T05:38:15.292Z,25.87
2022-11-21T05:41:05.894Z,26.23
2022-11-21T05:43:53.730Z,26.33
2022-11-21T05:46:41.236Z,26.07
2022-11-21T05:49:30.523Z,25.93
2022-11-21T05:52:18.007Z,26.70
2022-11-21T05:55:06.458Z,28.50
2022-11-21T05:57:54.105Z,28.43
2022-11-21T06:00:41.852Z,26.97
2022-11-21T06:03:31.283Z,27.50
2022-11-21T06:06:24.696Z,26.67
2022-11-21T06:09:13.152Z,25.83
2022-11-21T06:12:00.851Z,28.83
2022-11-21T06:14:48.373Z,29.00
2022-11-21T06:17:36.392Z,27.53
2022-11-21T06:20:24.069Z,26.70
2022-11-21T07:44:58.574Z,32.10
2022-11-21T07:47:47.510Z,32.70
2022-11-21T07:50:35.404Z,30.67
2022-11-21T07:53:24.124Z,30.80
2022-11-21T07:56:11.865Z,30.37
2022-11-21T07:58:59.699Z,30.93
2022-11-21T08:01:48.258Z,30.67
2022-11-21T08:04:37.157Z,30.73
2022-11-21T08:07:24.995Z,31.50
2022-11-21T08:10:12.563Z,29.73
2022-11-21T08:13:00.216Z,31.40
2022-11-21T08:15:48.071Z,30.83
2022-11-21T08:18:35.811Z,29.53
2022-11-21T08:21:25.043Z,29.53
2022-11-21T08:24:14.885Z,29.40
2022-11-21T08:27:02.771Z,30.43
2022-11-21T08:29:50.263Z,29.23
2022-11-21T08:32:38.335Z,28.77
2022-11-21T08:35:26.236Z,30.43
2022-11-21T08:38:15.601Z,28.90
2022-11-21T08:41:20.614Z,26.60
2022-11-21T08:44:13.660Z,27.27
2022-11-21T08:47:02.474Z,27.20
2022-11-21T08:49:50.144Z,30.10
2022-11-21T08:52:37.961Z,32.23
2022-11-21T08:55:27.152Z,29.93
2022-11-21T08:58:14.640Z,29.77
2022-11-21T09:01:02.347Z,30.30
2022-11-21T09:03:50.172Z,28.40
2022-11-21T10:10:20.407Z,23.55
2022-11-21T10:51:26.504Z,21.17
2022-11-21T10:54:34.311Z,20.53
2022-11-21T11:20:32.685Z,20.73
2022-11-21T11:23:28.719Z,20.80
2022-11-21T11:26:23.607Z,20.97
2022-11-21T11:29:16.376Z,20.83
2022-11-21T11:32:20.845Z,21.30
2022-11-21T14:08:36.552Z,18.93
2022-11-21T14:11:44.048Z,17.67
2022-11-21T14:14:37.455Z,18.23
2022-11-21T14:17:47.236Z,17.30
2022-11-21T14:20:49.405Z,17.23
2022-11-21T14:23:44.203Z,14.83
2022-11-21T14:26:40.333Z,15.03
2022-11-21T14:29:29.694Z,16.90
2022-11-21T14:32:17.776Z,18.77
2022-11-21T14:35:19.716Z,19.43
2022-11-21T14:38:07.890Z,18.67
2022-11-21T14:41:26.830Z,20.80
2022-11-21T14:44:21.244Z,21.20
2022-11-21T14:47:18.466Z,18.33
2022-11-21T14:50:24.596Z,19.07
2022-11-21T14:53:13.812Z,18.97
2022-11-21T14:56:02.067Z,19.80
2022-11-21T14:58:51.712Z,20.23
2022-11-21T15:01:46.222Z,19.07
2022-11-21T15:04:37.219Z,20.67
2022-11-21T15:07:31.581Z,19.97
2022-11-21T15:10:29.103Z,21.20
2022-11-21T15:13:20.317Z,21.60
2022-11-21T15:16:08.430Z,21.17
2022-11-21T15:18:57.690Z,22.30
2022-11-21T15:21:46.650Z,23.37
2022-11-21T15:24:41.803Z,22.43
2022-11-21T15:27:34.429Z,22.97
2022-11-21T15:30:27.824Z,22.10
2022-11-21T15:33:16.908Z,22.53
2022-11-21T15:36:15.065Z,22.80
2022-11-21T15:39:05.008Z,23.03
2022-11-21T15:41:52.420Z,22.03
2022-11-21T15:45:00.197Z,22.37
2022-11-21T15:47:47.901Z,21.83
2022-11-21T15:50:36.679Z,22.23
2022-11-21T15:53:25.629Z,21.70
2022-11-21T15:57:15.123Z,21.30
2022-11-21T15:59:23.958Z,22.23
2022-11-21T16:02:14.522Z,21.50
2022-11-21T16:05:02.213Z,20.53
2022-11-21T16:07:49.895Z,20.17
2022-11-21T16:10:39.253Z,22.00
2022-11-21T16:13:27.406Z,21.40
2022-11-21T16:16:15.353Z,18.07
2022-11-21T16:19:03.128Z,19.53
2022-11-21T16:21:50.816Z,18.70
2022-11-21T16:24:38.576Z,19.27
2022-11-21T16:27:27.862Z,19.27
2022-11-21T16:30:16.195Z,15.53
2022-11-21T16:33:04.072Z,14.83
2022-11-21T16:35:55.008Z,15.80
2022-11-21T16:38:44.489Z,16.20
2022-11-21T16:41:32.161Z,16.17
2022-11-21T16:44:21.121Z,15.87
2022-11-21T16:47:08.850Z,17.03
2022-11-21T16:49:56.630Z,16.17
2022-11-21T16:52:44.633Z,16.37
2022-11-21T16:55:32.652Z,18.73
2022-11-21T16:58:20.627Z,18.27
2022-11-21T17:01:14.416Z,18.43
2022-11-21T17:04:02.457Z,18.30
2022-11-21T17:06:50.048Z,18.00
2022-11-21T17:09:38.028Z,18.37
2022-11-21T17:12:25.620Z,18.07
2022-11-21T17:15:15.741Z,19.30
2022-11-21T17:18:05.118Z,20.27
2022-11-21T17:20:52.634Z,19.23
2022-11-21T17:23:43.550Z,17.63
2022-11-21T17:26:31.346Z,18.00
2022-11-21T17:29:19.267Z,24.97
2022-11-21T17:32:07.233Z,22.93
2022-11-21T17:34:56.893Z,22.47
2022-11-21T17:37:44.958Z,19.77
2022-11-21T17:40:32.660Z,20.57
2022-11-21T17:43:20.403Z,18.97
2022-11-21T17:46:10.924Z,18.13
2022-11-21T17:48:59.694Z,18.13
2022-11-21T17:51:52.451Z,18.40
2022-11-21T17:54:43.169Z,18.50
2022-11-21T17:57:30.982Z,16.23
2022-11-21T18:00:19.101Z,16.50
2022-11-21T18:03:06.967Z,14.23
2022-11-21T18:06:02.272Z,14.87
2022-11-21T18:08:51.169Z,14.20
2022-11-21T18:11:40.675Z,13.27
2022-11-21T18:14:29.276Z,16.43
2022-11-21T18:17:17.829Z,15.93
2022-11-21T18:20:06.308Z,14.87
2022-11-21T18:22:54.015Z,15.93
2022-11-21T18:25:43.416Z,15.97
2022-11-21T18:28:31.370Z,17.27
2022-11-21T18:31:20.504Z,14.53
2022-11-21T18:34:08.152Z,19.10
2022-11-21T18:36:55.852Z,21.53
2022-11-21T18:39:43.456Z,32.37
2022-11-21T18:42:34.463Z,29.03
2022-11-21T18:45:21.985Z,28.93
2022-11-21T18:48:09.499Z,24.73
2022-11-21T18:50:57.596Z,21.33
2022-11-21T18:53:45.923Z,24.17
2022-11-21T18:56:33.537Z,20.50
2022-11-21T18:59:22.975Z,20.10
2022-11-21T19:02:11.077Z,16.17
2022-11-21T19:04:58.896Z,15.60
2022-11-21T19:07:46.510Z,16.30
2022-11-21T19:10:43.292Z,14.03
2022-11-21T19:13:32.035Z,15.17
2022-11-21T19:16:24.426Z,14.93
2022-11-21T19:22:23.273Z,16.13
2022-11-21T19:25:11.227Z,16.60
2022-11-21T19:27:59.419Z,15.77
2022-11-21T19:30:47.382Z,15.70
2022-11-21T19:33:36.878Z,17.07
2022-11-21T19:36:26.028Z,15.53
2022-11-21T19:39:14.228Z,14.07
2022-11-21T19:42:01.821Z,14.13
2022-11-21T19:44:49.193Z,15.03
2022-11-21T19:47:37.498Z,14.60
2022-11-21T19:50:26.950Z,15.97
2022-11-21T19:53:14.921Z,15.23
2022-11-21T19:56:12.391Z,15.17
2022-11-21T19:59:00.368Z,14.80
2022-11-21T20:01:52.337Z,14.47
2022-11-21T20:04:40.659Z,14.83
2022-11-21T20:07:29.888Z,15.60
2022-11-21T20:10:18.519Z,15.87
2022-11-21T20:13:06.179Z,15.30
2022-11-21T20:15:54.083Z,13.47
2022-11-21T20:18:41.922Z,17.27
2022-11-21T20:21:29.988Z,16.60
2022-11-21T20:24:19.155Z,18.23
2022-11-21T20:27:07.053Z,20.23
2022-11-21T20:29:54.979Z,26.10
